Time;durP1;ratioP1;P1;durP2;ratioP2;P2;SDS_P1;SDS_P2;PMS_P1;PMS_P2;Temp;Humidity;BMP_temperature;BMP_pressure;BME280_temperature;BME280_humidity;BME280_pressure;Samples;Min_cycle;Max_cycle;Signal;HPM_P1;HPM_P2
2022/07/17 00:02:11;;;;;;;5.00;3.40;;;18.90;57.60;;;;;;7386400;19;20401;-49
2022/07/17 00:04:40;;;;;;;5.23;3.50;;;19.10;57.50;;;;;;7380230;19;20364;-49
2022/07/17 00:07:10;;;;;;;6.63;3.00;;;19.20;57.20;;;;;;7384804;19;20925;-50
2022/07/17 00:09:39;;;;;;;4.20;3.50;;;19.20;57.00;;;;;;7383975;19;20424;-48
2022/07/17 00:12:11;;;;;;;4.53;3.50;;;19.20;57.10;;;;;;7386484;19;20388;-48
2022/07/17 00:14:41;;;;;;;5.10;3.10;;;19.20;57.00;;;;;;7373204;19;20993;-49
2022/07/17 00:17:10;;;;;;;4.40;3.37;;;19.10;57.20;;;;;;7385090;19;20372;-49
2022/07/17 00:19:40;;;;;;;5.47;3.37;;;19.00;57.40;;;;;;7389218;19;20367;-49
2022/07/17 00:22:10;;;;;;;4.07;3.67;;;19.00;57.70;;;;;;7383612;19;20391;-49
2022/07/17 00:24:39;;;;;;;3.90;3.30;;;18.90;57.60;;;;;;7386868;19;20379;-49
2022/07/17 00:27:11;;;;;;;5.37;2.73;;;18.90;57.70;;;;;;7381440;19;20368;-49
2022/07/17 00:29:43;;;;;;;3.60;2.83;;;19.00;57.40;;;;;;7379025;19;20917;-49
2022/07/17 00:32:20;;;;;;;3.53;3.00;;;19.10;57.20;;;;;;7379741;19;20402;-48
2022/07/17 00:34:49;;;;;;;5.73;3.07;;;19.00;57.40;;;;;;7385021;19;20384;-49
2022/07/17 00:37:21;;;;;;;3.17;2.80;;;18.90;57.80;;;;;;7381889;19;20906;-50
2022/07/17 00:39:51;;;;;;;4.07;3.07;;;18.80;58.00;;;;;;7378978;19;21032;-45
2022/07/17 00:42:23;;;;;;;3.10;2.80;;;18.80;58.00;;;;;;7382565;19;20830;-45
2022/07/17 00:44:53;;;;;;;3.50;3.10;;;18.90;58.00;;;;;;7375746;19;20410;-44
2022/07/17 00:47:23;;;;;;;7.10;3.03;;;18.90;57.90;;;;;;7376932;19;20372;-45
2022/07/17 00:49:53;;;;;;;5.00;3.00;;;18.70;58.10;;;;;;7376987;19;20380;-45
2022/07/17 00:52:22;;;;;;;3.63;3.13;;;18.70;58.40;;;;;;7361539;19;20387;-45
2022/07/17 00:54:54;;;;;;;4.70;3.40;;;18.60;58.70;;;;;;7360856;19;20368;-46
2022/07/17 00:57:29;;;;;;;6.53;3.30;;;18.60;58.90;;;;;;7369400;19;20388;-49
2022/07/17 00:59:59;;;;;;;4.70;3.03;;;18.80;58.50;;;;;;7379997;19;20479;-45
2022/07/17 01:02:28;;;;;;;2.90;2.63;;;18.80;58.20;;;;;;7376562;19;20431;-45
2022/07/17 01:04:58;;;;;;;6.83;3.47;;;18.80;58.40;;;;;;7382388;19;20384;-46
2022/07/17 01:07:28;;;;;;;3.90;3.03;;;18.70;58.60;;;;;;7383836;19;20375;-44
2022/07/17 01:09:59;;;;;;;4.23;3.10;;;18.60;58.90;;;;;;7385576;19;20813;-45
2022/07/17 01:12:32;;;;;;;3.50;2.80;;;18.40;59.10;;;;;;7377871;19;20851;-45
2022/07/17 01:15:03;;;;;;;4.57;3.23;;;18.30;59.60;;;;;;7382144;19;20379;-45
2022/07/17 01:17:33;;;;;;;3.73;3.00;;;18.30;59.80;;;;;;7381583;19;20368;-45
2022/07/17 01:20:04;;;;;;;3.70;3.10;;;18.40;59.80;;;;;;7382363;19;20380;-45
2022/07/17 01:22:43;;;;;;;6.30;3.67;;;18.40;59.60;;;;;;7383303;19;20416;-45
2022/07/17 01:25:13;;;;;;;3.50;3.17;;;18.50;59.20;;;;;;7369683;19;20388;-45
2022/07/17 01:27:43;;;;;;;3.17;2.87;;;18.50;59.10;;;;;;7375190;19;20376;-45
2022/07/17 01:30:13;;;;;;;2.97;2.70;;;18.40;58.90;;;;;;7370349;19;20398;-45
2022/07/17 01:32:44;;;;;;;3.20;2.90;;;18.30;59.20;;;;;;7353631;19;20380;-45
2022/07/17 01:35:15;;;;;;;3.50;3.20;;;18.30;59.10;;;;;;7379794;19;20422;-45
2022/07/17 01:37:48;;;;;;;4.03;2.53;;;18.50;58.60;;;;;;7379089;19;20385;-45
2022/07/17 01:40:18;;;;;;;3.43;2.80;;;18.40;58.80;;;;;;7385366;19;20455;-45
2022/07/17 01:42:50;;;;;;;3.87;2.87;;;18.40;58.80;;;;;;7378565;19;20385;-45
2022/07/17 01:45:21;;;;;;;3.20;2.87;;;18.60;58.70;;;;;;7376210;19;20779;-45
2022/07/17 01:47:51;;;;;;;4.43;2.70;;;18.60;58.30;;;;;;7381742;19;21127;-45
2022/07/17 01:50:22;;;;;;;4.60;3.07;;;18.60;58.40;;;;;;7378892;19;20385;-48
2022/07/17 01:52:54;;;;;;;3.30;2.80;;;18.50;58.20;;;;;;7381499;19;20732;-48
2022/07/17 01:55:24;;;;;;;5.13;3.50;;;18.50;58.70;;;;;;7378352;19;20846;-49
2022/07/17 01:57:56;;;;;;;3.13;2.83;;;18.30;59.00;;;;;;7377939;19;20404;-49
2022/07/17 02:00:26;;;;;;;3.50;2.90;;;18.50;59.20;;;;;;7377468;19;20554;-49
2022/07/17 02:02:55;;;;;;;3.70;3.03;;;18.60;58.80;;;;;;7381080;19;20384;-48
2022/07/17 02:05:25;;;;;;;3.93;3.00;;;18.50;58.80;;;;;;7378498;19;20391;-49
2022/07/17 02:07:57;;;;;;;3.33;2.90;;;18.30;59.50;;;;;;7381593;19;20407;-48
2022/07/17 02:10:27;;;;;;;6.43;3.60;;;18.10;61.10;;;;;;7381600;19;20459;-49
2022/07/17 02:12:57;;;;;;;4.40;3.37;;;18.10;60.70;;;;;;7379834;19;20384;-48
2022/07/17 02:15:26;;;;;;;3.63;2.80;;;18.00;61.10;;;;;;7381421;19;20398;-49
2022/07/17 02:17:59;;;;;;;3.70;2.77;;;17.90;61.90;;;;;;7382381;19;20368;-49
2022/07/17 02:20:28;;;;;;;4.17;3.13;;;17.90;62.30;;;;;;7377117;19;20935;-45
2022/07/17 02:23:00;;;;;;;5.73;3.60;;;17.80;62.30;;;;;;7379672;19;20368;-45
2022/07/17 02:25:30;;;;;;;7.90;3.80;;;17.70;63.40;;;;;;7377751;19;20425;-45
2022/07/17 02:27:59;;;;;;;4.40;3.60;;;17.60;63.90;;;;;;7371480;19;20379;-44
2022/07/17 02:30:31;;;;;;;5.33;3.77;;;17.60;64.10;;;;;;7375943;19;20373;-45
2022/07/17 02:33:01;;;;;;;3.83;3.33;;;17.50;64.70;;;;;;7376228;19;20741;-45
2022/07/17 02:35:30;;;;;;;4.63;3.73;;;17.70;64.70;;;;;;7377401;19;20393;-44
2022/07/17 02:38:02;;;;;;;8.53;4.47;;;17.70;64.70;;;;;;7381386;19;20787;-45
2022/07/17 02:40:32;;;;;;;5.97;3.90;;;17.70;64.70;;;;;;7377620;19;20376;-45
2022/07/17 02:43:01;;;;;;;4.80;3.63;;;17.80;64.60;;;;;;7380417;19;21646;-45
2022/07/17 02:45:31;;;;;;;4.67;3.70;;;17.80;64.80;;;;;;7375608;19;20371;-45
2022/07/17 02:48:00;;;;;;;4.63;3.60;;;17.60;65.40;;;;;;7370466;19;20409;-45
2022/07/17 02:50:30;;;;;;;4.90;4.10;;;17.60;65.70;;;;;;7382403;19;20391;-49
2022/07/17 02:53:02;;;;;;;5.93;3.77;;;17.60;65.40;;;;;;7380461;19;20978;-49
2022/07/17 02:55:31;;;;;;;4.90;4.40;;;17.50;66.30;;;;;;7379673;19;20384;-49
2022/07/17 02:58:01;;;;;;;5.50;4.33;;;17.40;66.60;;;;;;7377759;19;20387;-49
2022/07/17 03:00:33;;;;;;;8.90;4.03;;;17.30;67.20;;;;;;7372569;19;20439;-49
2022/07/17 03:03:02;;;;;;;4.50;3.83;;;17.30;67.30;;;;;;7382197;19;20392;-49
2022/07/17 03:05:35;;;;;;;5.43;3.80;;;17.20;67.60;;;;;;7389232;19;20373;-48
2022/07/17 03:08:07;;;;;;;5.50;3.73;;;17.30;67.50;;;;;;7384573;19;20372;-49
2022/07/17 03:10:37;;;;;;;8.50;4.60;;;17.30;67.40;;;;;;7385374;19;20376;-48
2022/07/17 03:13:07;;;;;;;7.30;4.07;;;17.30;68.00;;;;;;7384518;19;20755;-50
2022/07/17 03:15:38;;;;;;;3.67;3.37;;;17.20;68.20;;;;;;7382860;19;20371;-49
2022/07/17 03:18:08;;;;;;;3.83;3.53;;;17.10;68.00;;;;;;7383760;19;20372;-49
2022/07/17 03:20:37;;;;;;;5.43;4.43;;;17.10;68.30;;;;;;7385331;19;20778;-49
2022/07/17 03:23:10;;;;;;;5.00;3.73;;;17.10;68.80;;;;;;7388629;19;20725;-49
2022/07/17 03:25:40;;;;;;;4.53;4.13;;;16.90;69.20;;;;;;7386317;19;20940;-49
2022/07/17 03:28:09;;;;;;;5.83;3.53;;;16.90;69.80;;;;;;7385557;19;20725;-49
2022/07/17 03:30:39;;;;;;;4.40;4.00;;;16.80;70.10;;;;;;7381924;19;20356;-49
2022/07/17 03:33:08;;;;;;;4.13;3.67;;;16.80;70.00;;;;;;7381106;19;20747;-49
2022/07/17 03:35:40;;;;;;;4.30;3.90;;;17.00;69.50;;;;;;7388270;19;20380;-49
2022/07/17 03:38:12;;;;;;;3.73;3.33;;;16.90;70.10;;;;;;7381971;19;20376;-50
2022/07/17 03:40:42;;;;;;;6.67;3.60;;;16.80;70.40;;;;;;7385324;19;20368;-49
2022/07/17 03:43:12;;;;;;;5.13;3.77;;;16.90;70.20;;;;;;7382891;19;20730;-49
2022/07/17 03:45:41;;;;;;;4.20;3.80;;;17.00;69.90;;;;;;7381961;19;20376;-49
2022/07/17 03:48:11;;;;;;;4.40;4.00;;;17.20;69.60;;;;;;7385481;19;20740;-49
2022/07/17 03:50:41;;;;;;;6.93;3.70;;;17.10;69.40;;;;;;7377750;19;20383;-50
2022/07/17 03:53:13;;;;;;;4.33;3.93;;;17.10;69.30;;;;;;7381237;19;20380;-48
2022/07/17 03:55:43;;;;;;;6.10;3.80;;;17.10;69.20;;;;;;7385967;19;20380;-50
2022/07/17 03:58:15;;;;;;;3.80;3.23;;;17.10;69.70;;;;;;7381764;19;20792;-49
2022/07/17 04:00:45;;;;;;;4.93;3.70;;;16.90;70.30;;;;;;7380587;19;20842;-50
2022/07/17 04:03:14;;;;;;;4.77;3.90;;;17.10;70.20;;;;;;7386853;19;20384;-49
2022/07/17 04:05:44;;;;;;;7.13;3.83;;;17.20;69.10;;;;;;7387533;19;20440;-49
2022/07/17 04:08:16;;;;;;;3.50;3.20;;;17.10;68.80;;;;;;7383356;19;20394;-49
2022/07/17 04:10:45;;;;;;;6.33;3.57;;;17.10;69.50;;;;;;7380495;19;20372;-49
2022/07/17 04:13:15;;;;;;;5.10;4.03;;;17.20;69.10;;;;;;7379593;19;20745;-49
2022/07/17 04:15:55;;;;;;;4.57;3.33;;;17.20;69.10;;;;;;7385231;19;20473;-50
2022/07/17 04:18:28;;;;;;;5.33;3.50;;;17.00;69.20;;;;;;7385308;19;20371;-49
2022/07/17 04:21:01;;;;;;;5.70;4.30;;;17.00;70.10;;;;;;7386117;19;21524;-45
2022/07/17 04:23:33;;;;;;;4.33;3.93;;;17.00;70.50;;;;;;7379470;19;20804;-45
2022/07/17 04:26:03;;;;;;;4.63;4.10;;;17.10;70.20;;;;;;7381500;19;20511;-45
2022/07/17 04:28:32;;;;;;;5.40;3.90;;;17.10;70.40;;;;;;7384722;19;20799;-44
2022/07/17 04:31:02;;;;;;;11.77;3.97;;;17.00;70.70;;;;;;7375709;19;20937;-45
2022/07/17 04:33:31;;;;;;;6.13;3.90;;;17.10;70.90;;;;;;7378284;19;20718;-45
2022/07/17 04:36:00;;;;;;;4.30;3.90;;;17.00;71.80;;;;;;7380812;19;20439;-45
2022/07/17 04:38:33;;;;;;;4.40;4.00;;;16.90;72.60;;;;;;7381974;19;20901;-44
2022/07/17 04:41:02;;;;;;;4.80;3.50;;;17.00;72.90;;;;;;7384841;19;20376;-45
2022/07/17 04:43:32;;;;;;;5.03;3.93;;;17.10;72.40;;;;;;7379090;19;20364;-45
2022/07/17 04:46:01;;;;;;;6.33;5.03;;;17.30;71.90;;;;;;7382438;19;21099;-45
2022/07/17 04:48:31;;;;;;;5.73;3.87;;;17.40;71.60;;;;;;7380530;19;20384;-45
2022/07/17 04:51:00;;;;;;;4.20;3.80;;;17.50;71.30;;;;;;7382377;19;20429;-48
2022/07/17 04:53:30;;;;;;;4.80;4.40;;;17.60;71.10;;;;;;7381321;19;20372;-48
2022/07/17 04:56:02;;;;;;;4.50;3.90;;;17.70;71.10;;;;;;7380828;19;20451;-48
2022/07/17 04:58:32;;;;;;;5.20;4.73;;;17.60;71.30;;;;;;7383530;19;20379;-49
2022/07/17 05:01:01;;;;;;;5.23;3.90;;;17.60;71.80;;;;;;7376027;19;20421;-49
2022/07/17 05:03:33;;;;;;;6.00;3.87;;;17.60;72.30;;;;;;7377185;19;20372;-50
2022/07/17 05:06:05;;;;;;;6.40;5.00;;;17.70;71.90;;;;;;7371828;19;20416;-48
2022/07/17 05:08:36;;;;;;;6.77;4.80;;;17.90;71.40;;;;;;7383923;19;20391;-49
2022/07/17 05:11:08;;;;;;;8.07;4.60;;;18.00;71.20;;;;;;7380024;19;20368;-48
2022/07/17 05:13:38;;;;;;;5.60;4.97;;;18.10;70.80;;;;;;7383825;19;20376;-49
2022/07/17 05:16:08;;;;;;;10.20;5.10;;;18.30;70.00;;;;;;7377321;19;20447;-49
2022/07/17 05:18:37;;;;;;;6.20;5.23;;;18.50;69.00;;;;;;7384849;19;20376;-49
2022/07/17 05:21:09;;;;;;;6.30;4.63;;;18.60;68.00;;;;;;7378558;19;20427;-45
2022/07/17 05:23:40;;;;;;;9.97;5.30;;;18.50;68.60;;;;;;7380982;19;20917;-45
2022/07/17 05:26:13;;;;;;;7.90;4.93;;;18.50;68.70;;;;;;7377333;19;20391;-45
2022/07/17 05:28:42;;;;;;;6.23;4.80;;;18.50;68.20;;;;;;7383276;19;20383;-44
2022/07/17 05:31:14;;;;;;;5.73;4.80;;;18.60;69.10;;;;;;7379894;19;20388;-45
2022/07/17 05:33:46;;;;;;;7.37;5.13;;;18.80;67.10;;;;;;7381289;19;20383;-47
2022/07/17 05:36:15;;;;;;;7.70;5.90;;;19.00;66.50;;;;;;7376274;19;20476;-45
2022/07/17 05:38:45;;;;;;;5.07;4.60;;;19.10;66.30;;;;;;7377608;19;21066;-45
2022/07/17 05:41:17;;;;;;;6.03;5.07;;;19.20;65.40;;;;;;7379123;19;20368;-45
2022/07/17 05:43:46;;;;;;;6.10;5.33;;;19.20;65.50;;;;;;7380397;19;20380;-45
2022/07/17 05:46:16;;;;;;;6.77;4.83;;;19.30;65.50;;;;;;7381025;19;20376;-45
2022/07/17 05:48:45;;;;;;;6.73;5.10;;;19.40;65.20;;;;;;7385001;19;20375;-45
2022/07/17 05:51:15;;;;;;;6.70;5.30;;;19.60;64.80;;;;;;7379686;19;20407;-49
2022/07/17 05:53:44;;;;;;;6.77;5.13;;;19.60;64.30;;;;;;7381635;19;20376;-50
2022/07/17 05:56:16;;;;;;;8.33;5.60;;;19.70;63.60;;;;;;7381346;19;20372;-49
2022/07/17 05:58:46;;;;;;;8.03;5.30;;;19.80;63.70;;;;;;7377970;19;20372;-48
2022/07/17 06:01:15;;;;;;;6.20;4.97;;;20.00;63.00;;;;;;7378802;19;20432;-48
2022/07/17 06:03:45;;;;;;;5.33;4.83;;;20.00;62.10;;;;;;7380801;19;20372;-49
2022/07/17 06:06:18;;;;;;;6.13;4.93;;;20.10;61.50;;;;;;7380479;19;20364;-49
2022/07/17 06:08:50;;;;;;;6.10;5.33;;;20.20;62.00;;;;;;7380607;19;20379;-49
2022/07/17 06:11:22;;;;;;;5.60;5.00;;;20.20;61.60;;;;;;7376822;19;20447;-48
2022/07/17 06:13:51;;;;;;;7.00;5.33;;;20.30;61.40;;;;;;7378077;19;20360;-49
2022/07/17 06:16:21;;;;;;;7.30;5.80;;;20.40;60.50;;;;;;7379209;19;20372;-49
2022/07/17 06:18:50;;;;;;;8.63;4.90;;;20.50;59.70;;;;;;7378385;19;20414;-48
2022/07/17 06:21:22;;;;;;;6.30;5.00;;;20.60;59.70;;;;;;7378470;19;20375;-45
2022/07/17 06:23:51;;;;;;;7.10;5.50;;;20.70;59.70;;;;;;7378762;19;20418;-45
2022/07/17 06:26:23;;;;;;;5.20;4.63;;;20.80;59.20;;;;;;7378689;19;20380;-45
2022/07/17 06:28:53;;;;;;;5.50;4.57;;;21.00;58.60;;;;;;7375580;19;20373;-45
2022/07/17 06:31:23;;;;;;;6.73;5.30;;;21.10;58.10;;;;;;7376944;19;20383;-45
2022/07/17 06:33:52;;;;;;;8.50;5.97;;;21.20;57.80;;;;;;7377632;19;20414;-46
2022/07/17 06:36:25;;;;;;;9.27;5.50;;;21.30;57.70;;;;;;7380691;19;20443;-45
2022/07/17 06:38:54;;;;;;;6.97;4.93;;;21.30;57.10;;;;;;7381965;19;20375;-45
2022/07/17 06:41:26;;;;;;;6.40;4.80;;;21.30;57.40;;;;;;7389311;19;20449;-45
2022/07/17 06:43:56;;;;;;;6.60;5.07;;;21.30;57.00;;;;;;7384708;19;20408;-45
2022/07/17 06:46:25;;;;;;;5.93;5.20;;;21.40;56.80;;;;;;7387285;19;20909;-45
2022/07/17 06:48:55;;;;;;;4.43;4.00;;;21.50;56.80;;;;;;7391408;19;20751;-45
2022/07/17 06:51:24;;;;;;;4.53;4.17;;;21.60;56.20;;;;;;7388130;19;21065;-46
2022/07/17 06:53:56;;;;;;;6.50;4.67;;;21.80;56.10;;;;;;7383737;19;20920;-45
2022/07/17 06:56:28;;;;;;;9.43;4.50;;;21.90;56.10;;;;;;7385922;19;20878;-45
2022/07/17 06:58:57;;;;;;;8.23;5.67;;;22.00;55.80;;;;;;7389168;19;20372;-46
2022/07/17 07:01:27;;;;;;;5.20;4.40;;;22.00;55.10;;;;;;7383260;19;20444;-45
2022/07/17 07:03:56;;;;;;;5.17;4.10;;;22.10;55.10;;;;;;7379336;19;20383;-45
2022/07/17 07:06:26;;;;;;;6.50;3.87;;;22.30;54.60;;;;;;7374584;19;20388;-45
2022/07/17 07:08:55;;;;;;;4.47;4.07;;;22.40;54.20;;;;;;7385816;19;20813;-45
2022/07/17 07:11:27;;;;;;;6.07;4.13;;;22.60;53.70;;;;;;7385697;19;20415;-46
2022/07/17 07:13:59;;;;;;;6.33;4.03;;;22.80;52.90;;;;;;7378294;19;20378;-45
2022/07/17 07:16:29;;;;;;;5.70;3.97;;;22.90;52.20;;;;;;7385779;19;20831;-45
2022/07/17 07:18:58;;;;;;;4.00;3.60;;;22.90;51.90;;;;;;7367779;19;20375;-47
2022/07/17 07:21:28;;;;;;;3.70;3.20;;;22.90;52.10;;;;;;7368410;19;20378;-49
2022/07/17 07:23:58;;;;;;;5.10;3.43;;;23.10;51.50;;;;;;7371083;19;20391;-49
2022/07/17 07:26:30;;;;;;;5.00;3.97;;;23.20;50.70;;;;;;7373090;19;20384;-49
2022/07/17 07:28:59;;;;;;;6.40;3.23;;;23.20;50.20;;;;;;7371726;19;20388;-50
2022/07/17 07:31:29;;;;;;;5.40;3.33;;;23.40;50.10;;;;;;7372805;19;20360;-49
2022/07/17 07:33:58;;;;;;;4.23;3.80;;;23.50;49.40;;;;;;7373692;19;20364;-50
2022/07/17 07:36:28;;;;;;;5.93;2.90;;;23.70;49.10;;;;;;7377414;19;20364;-49
2022/07/17 07:38:57;;;;;;;3.57;3.13;;;24.00;48.80;;;;;;7370803;19;21266;-49
2022/07/17 07:41:30;;;;;;;4.30;3.90;;;24.00;47.80;;;;;;7383739;19;20944;-50
2022/07/17 07:43:59;;;;;;;4.70;3.40;;;24.10;47.80;;;;;;7384563;19;20372;-50
2022/07/17 07:46:28;;;;;;;3.87;3.47;;;24.10;47.00;;;;;;7384546;19;21076;-50
2022/07/17 07:48:58;;;;;;;3.40;3.10;;;24.30;47.20;;;;;;7380182;19;20376;-51
2022/07/17 07:51:27;;;;;;;4.07;3.77;;;24.40;47.00;;;;;;7385840;19;21177;-50
2022/07/17 07:53:57;;;;;;;4.37;3.17;;;24.50;47.10;;;;;;7381496;19;20439;-49
2022/07/17 07:56:26;;;;;;;6.60;3.27;;;24.50;46.90;;;;;;7380352;19;20376;-50
2022/07/17 07:58:58;;;;;;;3.57;2.70;;;24.70;46.80;;;;;;7380062;19;20373;-49
2022/07/17 08:01:28;;;;;;;3.70;2.63;;;24.90;46.40;;;;;;7380632;19;20427;-49
2022/07/17 08:03:57;;;;;;;4.67;3.13;;;25.10;46.00;;;;;;7386994;19;20384;-49
2022/07/17 08:06:27;;;;;;;2.90;2.60;;;25.30;45.90;;;;;;7370712;19;20376;-51
2022/07/17 08:08:56;;;;;;;3.83;2.43;;;25.50;45.70;;;;;;7374683;19;20818;-49
2022/07/17 08:11:26;;;;;;;3.60;2.90;;;25.60;45.10;;;;;;7381085;19;20389;-49
2022/07/17 08:13:59;;;;;;;3.67;3.00;;;25.70;44.80;;;;;;7385679;19;20451;-50
2022/07/17 08:16:28;;;;;;;5.13;3.40;;;25.60;44.60;;;;;;7385849;19;20380;-52
2022/07/17 08:18:58;;;;;;;4.93;3.53;;;25.50;44.70;;;;;;7389559;19;20414;-50
2022/07/17 08:21:28;;;;;;;2.67;2.30;;;25.50;44.40;;;;;;7388558;19;20364;-46
2022/07/17 08:23:57;;;;;;;3.37;2.87;;;25.80;44.10;;;;;;7378543;19;20921;-46
2022/07/17 08:26:26;;;;;;;3.30;2.73;;;26.10;43.50;;;;;;7381466;19;20384;-46
2022/07/17 08:28:59;;;;;;;3.33;3.03;;;26.30;43.00;;;;;;7385870;19;20447;-47
2022/07/17 08:31:29;;;;;;;3.07;2.87;;;26.50;42.10;;;;;;7378922;19;20968;-46
2022/07/17 08:34:03;;;;;;;4.77;2.50;;;26.40;42.20;;;;;;7386028;19;20376;-46
2022/07/17 08:36:32;;;;;;;3.17;2.87;;;26.60;42.50;;;;;;7386436;19;21126;-46
2022/07/17 08:39:02;;;;;;;2.83;2.60;;;26.60;42.20;;;;;;7384989;19;20389;-46
2022/07/17 08:41:36;;;;;;;4.70;2.47;;;26.70;42.50;;;;;;7386079;19;20384;-46
2022/07/17 08:44:10;;;;;;;3.47;2.77;;;26.90;41.70;;;;;;7379742;19;20956;-46
2022/07/17 08:46:41;;;;;;;2.30;2.10;;;26.90;40.50;;;;;;7386067;19;20377;-46
2022/07/17 08:49:11;;;;;;;2.73;2.47;;;27.10;40.90;;;;;;7377303;19;20649;-46
2022/07/17 08:51:40;;;;;;;3.17;2.87;;;27.20;41.00;;;;;;7388931;19;20383;-46
2022/07/17 08:54:13;;;;;;;9.10;2.80;;;27.40;41.70;;;;;;7381783;19;20529;-46
2022/07/17 08:56:43;;;;;;;3.63;2.87;;;27.60;40.80;;;;;;7384181;19;21149;-46
2022/07/17 08:59:15;;;;;;;2.33;2.07;;;27.90;40.40;;;;;;7387541;19;20882;-46
2022/07/17 09:01:47;;;;;;;3.00;2.80;;;28.20;40.00;;;;;;7383205;19;20382;-47
2022/07/17 09:04:19;;;;;;;2.47;2.27;;;28.50;39.40;;;;;;7385459;19;20372;-47
2022/07/17 09:06:49;;;;;;;3.70;2.50;;;28.70;38.60;;;;;;7385452;19;20376;-46
2022/07/17 09:09:19;;;;;;;3.23;2.27;;;28.30;38.70;;;;;;7384153;19;20443;-46
2022/07/17 09:11:50;;;;;;;4.20;2.90;;;28.40;38.00;;;;;;7386012;19;20384;-46
2022/07/17 09:14:23;;;;;;;3.07;2.70;;;28.20;38.60;;;;;;7383551;19;20380;-46
2022/07/17 09:16:56;;;;;;;2.37;2.23;;;28.30;38.70;;;;;;7386187;19;20380;-46
2022/07/17 09:19:32;;;;;;;2.93;2.07;;;28.60;37.80;;;;;;7378493;19;20368;-49
2022/07/17 09:22:10;;;;;;;3.23;2.73;;;28.90;37.80;;;;;;7174565;19;3009174;-51
2022/07/17 09:24:48;;;;;;;3.13;2.60;;;29.00;37.10;;;;;;7380572;19;20186;-51
2022/07/17 09:27:32;;;;;;;3.13;2.10;;;29.00;36.80;;;;;;7385781;19;20719;-51
2022/07/17 09:30:09;;;;;;;6.43;2.83;;;29.20;36.80;;;;;;7381544;19;20414;-50
2022/07/17 09:32:42;;;;;;;2.57;2.17;;;29.40;35.90;;;;;;7385344;19;20384;-50
2022/07/17 09:35:15;;;;;;;2.50;2.30;;;29.70;36.10;;;;;;7385586;19;20408;-50
2022/07/17 09:37:45;;;;;;;2.60;2.03;;;29.90;35.70;;;;;;7384768;19;20368;-50
2022/07/17 09:41:09;;;;;;;3.10;2.20;;;30.00;35.30;;;;;;7382863;19;20806;-50
2022/07/17 09:43:09;;;;;;;3.17;2.20;;;30.10;34.60;;;;;;7383628;19;20387;-50
2022/07/17 09:45:45;;;;;;;2.60;1.97;;;30.30;34.70;;;;;;7384111;19;20748;-50
2022/07/17 09:48:17;;;;;;;2.33;2.13;;;30.50;34.50;;;;;;7384966;19;20380;-50
2022/07/17 09:50:47;;;;;;;2.47;1.80;;;30.80;33.30;;;;;;7386587;19;20416;-50
2022/07/17 09:53:17;;;;;;;6.73;4.87;;;31.10;32.80;;;;;;7380201;19;20391;-50
2022/07/17 09:55:47;;;;;;;2.40;2.10;;;31.20;32.00;;;;;;7368956;19;20376;-51
2022/07/17 09:58:22;;;;;;;2.33;2.13;;;31.50;31.70;;;;;;7379810;19;20384;-51
2022/07/17 10:00:54;;;;;;;1.97;1.77;;;31.40;30.60;;;;;;7382848;19;20969;-47
2022/07/17 10:03:28;;;;;;;3.37;1.93;;;31.60;30.40;;;;;;7376054;19;20758;-46
2022/07/17 10:06:01;;;;;;;1.53;1.40;;;31.80;29.90;;;;;;7386305;19;20739;-46
2022/07/17 10:08:33;;;;;;;1.90;1.70;;;31.80;29.90;;;;;;7375004;19;21112;-47
2022/07/17 10:11:09;;;;;;;1.80;1.70;;;32.00;29.80;;;;;;7368925;19;21185;-46
2022/07/17 10:13:43;;;;;;;2.43;1.37;;;32.20;29.10;;;;;;7369644;19;20379;-46
2022/07/17 10:16:26;;;;;;;1.57;1.47;;;32.30;28.80;;;;;;7372891;19;20390;-46
2022/07/17 10:18:57;;;;;;;2.63;2.10;;;32.50;28.60;;;;;;7381691;19;20768;-47
2022/07/17 10:21:28;;;;;;;1.60;1.50;;;32.90;28.90;;;;;;7381223;19;20486;-47
2022/07/17 10:24:11;;;;;;;2.83;2.20;;;33.90;28.30;;;;;;7373716;19;20970;-47
2022/07/17 10:26:48;;;;;;;2.40;2.00;;;34.40;28.50;;;;;;7375410;19;20394;-47
2022/07/17 10:29:31;;;;;;;2.40;2.20;;;35.00;27.50;;;;;;7365878;19;20447;-50
2022/07/17 10:32:05;;;;;;;4.20;2.17;;;35.00;27.20;;;;;;7380063;19;20360;-50
2022/07/17 10:34:43;;;;;;;2.70;2.13;;;34.90;27.60;;;;;;7376131;19;20378;-50
2022/07/17 10:37:25;;;;;;;3.77;2.23;;;34.70;27.60;;;;;;7381449;19;20910;-50
2022/07/17 10:39:56;;;;;;;2.03;1.60;;;34.60;28.10;;;;;;7376901;19;20396;-50
2022/07/17 10:42:59;;;;;;;1.60;1.50;;;34.30;28.40;;;;;;7376306;19;20919;-51
2022/07/17 10:45:37;;;;;;;2.90;2.40;;;34.40;27.90;;;;;;7366623;19;20375;-50
2022/07/17 10:48:11;;;;;;;4.27;2.10;;;34.30;27.50;;;;;;7377110;19;20472;-50
2022/07/17 10:50:42;;;;;;;1.80;1.70;;;34.00;28.20;;;;;;7378537;19;20375;-50
2022/07/17 10:53:16;;;;;;;2.20;1.83;;;34.10;28.10;;;;;;7374289;19;20708;-50
2022/07/17 10:55:50;;;;;;;1.80;1.50;;;34.30;27.90;;;;;;7376059;19;20777;-50
2022/07/17 10:58:22;;;;;;;2.57;1.80;;;34.50;27.80;;;;;;7371180;19;20368;-50
2022/07/17 11:01:09;;;;;;;2.33;1.80;;;33.70;27.90;;;;;;7370498;19;20439;-50
2022/07/17 11:03:42;;;;;;;3.10;1.90;;;33.80;28.10;;;;;;7365944;19;20432;-50
2022/07/17 11:06:17;;;;;;;2.83;1.60;;;34.20;28.10;;;;;;7371593;19;20758;-50
2022/07/17 11:08:49;;;;;;;1.83;1.60;;;34.70;27.60;;;;;;7378865;19;20476;-52
2022/07/17 11:11:24;;;;;;;6.27;1.80;;;35.10;26.30;;;;;;7373043;19;20411;-50
2022/07/17 11:13:56;;;;;;;2.17;1.97;;;35.10;26.60;;;;;;7379701;19;20393;-50
2022/07/17 11:16:30;;;;;;;2.07;1.87;;;35.10;26.40;;;;;;7370834;19;20443;-50
2022/07/17 11:19:05;;;;;;;1.63;1.53;;;34.90;26.50;;;;;;7370765;19;20387;-50
2022/07/17 11:21:35;;;;;;;1.93;1.60;;;35.10;26.00;;;;;;7377515;19;21024;-50
2022/07/17 11:24:07;;;;;;;1.90;1.40;;;35.30;26.20;;;;;;7385804;19;20379;-50
2022/07/17 11:26:42;;;;;;;1.73;1.60;;;35.40;24.90;;;;;;7387960;19;20387;-50
2022/07/17 11:29:12;;;;;;;2.63;1.60;;;35.10;25.50;;;;;;7389742;19;20368;-50
2022/07/17 11:31:45;;;;;;;1.97;1.77;;;35.20;25.70;;;;;;7380851;19;20376;-50
2022/07/17 11:34:18;;;;;;;2.30;2.10;;;35.30;26.20;;;;;;7382434;19;20383;-50
2022/07/17 11:36:47;;;;;;;1.57;1.47;;;35.30;26.10;;;;;;7381534;19;20384;-50
2022/07/17 11:39:21;;;;;;;2.10;1.70;;;35.00;26.60;;;;;;7383192;19;20712;-50
2022/07/17 11:41:53;;;;;;;1.80;1.20;;;35.30;26.10;;;;;;7385131;19;20383;-50
2022/07/17 11:44:24;;;;;;;2.97;2.00;;;35.30;25.40;;;;;;7387776;19;20376;-50
2022/07/17 11:46:54;;;;;;;4.00;2.03;;;35.30;25.70;;;;;;7389540;19;20379;-50
2022/07/17 11:49:31;;;;;;;3.30;2.57;;;35.20;26.00;;;;;;7388261;19;20977;-50
2022/07/17 11:52:02;;;;;;;2.20;2.00;;;35.10;25.60;;;;;;7382698;19;20477;-50
2022/07/17 11:54:31;;;;;;;1.80;1.60;;;34.70;26.00;;;;;;7387018;19;20388;-50
2022/07/17 11:57:03;;;;;;;1.90;1.80;;;34.50;26.00;;;;;;7387352;19;20380;-50
2022/07/17 11:59:34;;;;;;;2.50;2.20;;;34.40;26.60;;;;;;7380444;19;20731;-50
2022/07/17 12:02:10;;;;;;;2.43;1.70;;;34.00;26.30;;;;;;7386341;19;20371;-50
2022/07/17 12:04:51;;;;;;;2.10;1.73;;;34.30;26.70;;;;;;7387266;19;20921;-50
2022/07/17 12:07:27;;;;;;;2.53;1.80;;;34.40;26.40;;;;;;7385106;19;20379;-50
2022/07/17 12:09:57;;;;;;;2.40;1.67;;;34.60;25.50;;;;;;7384213;19;20890;-50
2022/07/17 12:12:30;;;;;;;1.70;1.60;;;34.60;25.40;;;;;;7382807;19;20910;-50
2022/07/17 12:15:02;;;;;;;2.00;1.80;;;34.70;25.30;;;;;;7383508;19;20757;-50
2022/07/17 12:17:42;;;;;;;2.73;1.90;;;35.10;25.40;;;;;;7385742;19;20376;-50
2022/07/17 12:20:19;;;;;;;3.37;1.40;;;35.40;25.10;;;;;;7377087;19;20905;-50
2022/07/17 12:22:51;;;;;;;2.10;1.90;;;35.50;25.90;;;;;;7382156;19;20369;-49
2022/07/17 12:25:27;;;;;;;1.97;1.80;;;35.80;25.70;;;;;;7380164;19;20399;-50
2022/07/17 12:27:57;;;;;;;2.03;1.67;;;35.70;25.40;;;;;;7377465;19;20914;-49
2022/07/17 12:30:27;;;;;;;1.70;1.60;;;36.00;25.00;;;;;;7383431;19;20405;-49
2022/07/17 12:32:56;;;;;;;2.10;1.60;;;36.00;24.00;;;;;;7386180;19;20432;-49
2022/07/17 12:35:31;;;;;;;1.87;1.67;;;35.30;24.60;;;;;;7374797;19;20387;-49
2022/07/17 12:38:00;;;;;;;1.87;1.57;;;35.40;24.80;;;;;;7374683;19;20380;-49
2022/07/17 12:40:30;;;;;;;1.40;1.30;;;35.50;25.30;;;;;;7383960;19;20924;-46
2022/07/17 12:43:02;;;;;;;2.77;1.63;;;35.50;25.30;;;;;;7381461;19;20360;-46
2022/07/17 12:45:31;;;;;;;1.70;1.60;;;35.80;25.10;;;;;;7382335;19;20451;-46
2022/07/17 12:48:01;;;;;;;2.10;1.90;;;35.90;24.70;;;;;;7379644;19;21002;-46
2022/07/17 12:50:33;;;;;;;1.77;1.67;;;35.80;24.10;;;;;;7382258;19;20380;-46
2022/07/17 12:53:06;;;;;;;2.50;2.30;;;36.00;24.40;;;;;;7377868;19;20380;-46
2022/07/17 12:55:36;;;;;;;2.10;1.90;;;36.00;24.60;;;;;;7384285;19;20932;-46
2022/07/17 12:58:05;;;;;;;3.33;1.80;;;36.00;24.50;;;;;;7384919;19;20413;-46
2022/07/17 13:00:37;;;;;;;2.23;2.00;;;36.20;24.40;;;;;;7374190;19;20830;-46
2022/07/17 13:03:07;;;;;;;2.10;1.63;;;36.00;25.00;;;;;;7378557;19;20383;-46
2022/07/17 13:05:39;;;;;;;2.60;1.90;;;35.20;25.40;;;;;;7376337;19;20435;-45
2022/07/17 13:08:11;;;;;;;2.00;1.90;;;34.30;26.00;;;;;;7376086;19;20376;-46